Terminal Aerodrome Forecast
Issued by NWS Blacksburg, VA

Home | Current Version | Previous Version | Text Only | Print | Product List | Glossary On
Versions: 1 2 3 4 5 6 7 8 9 10 11 12 13 14 15
000
FTUS41 KRNK 041126
TAFROA
TAF
KROA 041126Z 0412/0512 15005KT P6SM OVC120
     FM041900 14005KT P6SM VCSH OVC025
     FM042300 15006KT 4SM -RA BR OVC025
     FM050300 VRB03KT 2SM -RA BR OVC008
     FM050600 VRB03KT 5SM BR OVC003=

USA.gov is the U.S. government's official web portal to all federal, state and local government web resources and services.